TimeEDT,TemperatureF,Dew PointF,Humidity,Sea Level PressureIn,VisibilityMPH,Wind Direction,Wind SpeedMPH,Gust SpeedMPH,PrecipitationIn,Events,Conditions,WindDirDegrees,DateUTC
12:58 AM,66.4,58.8,77,29.84,10.0,WSW,5.8,-,N/A,,Clear,250,2013-06-17 04:58:00
1:58 AM,64.0,58.8,83,29.84,10.0,West,5.8,-,N/A,,Clear,280,2013-06-17 05:58:00
2:58 AM,59.7,59.2,98,29.86,10.0,SW,5.8,-,N/A,,Clear,230,2013-06-17 06:58:00
3:58 AM,61.2,60.4,97,29.85,10.0,Calm,Calm,-,N/A,,Clear,0,2013-06-17 07:58:00
4:58 AM,57.7,57.2,98,29.87,10.0,Calm,Calm,-,N/A,,Clear,0,2013-06-17 08:58:00
5:58 AM,55.4,55.0,99,29.88,5.0,ENE,1.2,-,N/A,,Clear,70,2013-06-17 09:58:00
6:58 AM,63.3,62.6,97,29.89,10.0,SSE,4.6,-,N/A,,Clear,160,2013-06-17 10:58:00
7:58 AM,68.4,63.7,85,29.90,10.0,South,5.8,-,N/A,,Clear,170,2013-06-17 11:58:00
8:58 AM,72.5,64.2,75,29.88,10.0,SSW,3.5,-,N/A,,Clear,200,2013-06-17 12:58:00
9:22 AM,73.4,62.6,69,29.87,10.0,Variable,3.5,-,N/A,,Light Drizzle,0,2013-06-17 13:22:00
9:24 AM,73.4,62.6,69,29.87,10.0,Variable,3.5,-,N/A,,Clear,0,2013-06-17 13:24:00
9:58 AM,75.4,63.7,67,29.88,10.0,SSW,6.9,-,0.00,,Clear,200,2013-06-17 13:58:00
10:58 AM,77.4,63.9,63,29.87,10.0,South,4.6,-,N/A,,Clear,170,2013-06-17 14:58:00
11:58 AM,80.6,62.2,53,29.85,10.0,South,8.1,17.3,N/A,,Partly Cloudy,180,2013-06-17 15:58:00
12:58 PM,82.2,62.1,50,29.85,10.0,SSW,10.4,-,N/A,,Partly Cloudy,200,2013-06-17 16:58:00
1:58 PM,84.4,60.1,44,29.82,10.0,SW,10.4,19.6,N/A,,Partly Cloudy,220,2013-06-17 17:58:00
2:58 PM,83.5,58.5,42,29.81,10.0,SSW,15.0,-,N/A,,Partly Cloudy,210,2013-06-17 18:58:00
3:58 PM,82.4,59.0,45,29.81,10.0,SSW,12.7,-,N/A,,Mostly Cloudy,210,2013-06-17 19:58:00
4:51 PM,84.2,57.2,40,29.79,10.0,West,11.5,-,N/A,Thunderstorm,Scattered Clouds,270,2013-06-17 20:51:00
4:58 PM,83.1,57.4,41,29.79,10.0,WNW,12.7,-,N/A,Thunderstorm,Scattered Clouds,290,2013-06-17 20:58:00
5:03 PM,80.6,59.0,48,29.83,10.0,North,32.2,39.1,N/A,Rain-Thunderstorm,Light Rain Showers,10,2013-06-17 21:03:00
5:09 PM,80.6,59.0,48,29.83,6.0,North,27.6,40.3,N/A,Rain-Thunderstorm,Light Thunderstorms and Rain,10,2013-06-17 21:09:00
5:31 PM,64.4,60.8,88,29.87,2.0,North,11.5,-,N/A,Rain-Thunderstorm,Thunderstorms and Rain,360,2013-06-17 21:31:00
5:46 PM,64.4,60.8,88,29.87,3.0,North,12.7,-,N/A,Rain-Thunderstorm,Light Thunderstorms and Rain,360,2013-06-17 21:46:00
5:58 PM,63.9,62.2,94,29.87,5.0,North,10.4,-,0.21,Rain-Thunderstorm,Light Thunderstorms and Rain,350,2013-06-17 21:58:00
6:04 PM,64.4,62.6,94,29.85,8.0,NNW,6.9,-,N/A,Rain,Light Rain Showers,330,2013-06-17 22:04:00
6:35 PM,64.4,64.4,100,29.86,10.0,ESE,4.6,-,N/A,,Mostly Cloudy,110,2013-06-17 22:35:00
6:58 PM,65.7,64.4,96,29.87,10.0,ESE,4.6,-,0.02,,Partly Cloudy,110,2013-06-17 22:58:00
7:58 PM,65.8,64.8,96,29.90,10.0,SSE,5.8,-,N/A,,Partly Cloudy,160,2013-06-17 23:58:00
8:58 PM,63.7,63.1,98,29.92,10.0,South,3.5,-,N/A,,Partly Cloudy,190,2013-06-18 00:58:00
9:58 PM,61.3,61.0,99,29.93,10.0,Calm,Calm,-,N/A,,Partly Cloudy,0,2013-06-18 01:58:00
10:58 PM,58.1,57.7,99,29.92,5.0,NE,2.3,-,N/A,,Clear,40,2013-06-18 02:58:00
10:59 PM,59.0,59.0,100,29.91,0.2,Calm,Calm,-,N/A,Fog,Fog,0,2013-06-18 02:59:00
11:01 PM,59.0,59.0,100,29.91,0.5,Calm,Calm,-,N/A,Fog,Fog,0,2013-06-18 03:01:00
11:03 PM,59.0,59.0,100,29.91,0.5,NNE,1.2,-,N/A,Fog,Fog,30,2013-06-18 03:03:00
11:06 PM,59.0,59.0,100,29.91,0.8,NE,2.3,-,N/A,,Clear,40,2013-06-18 03:06:00
11:07 PM,59.0,59.0,100,29.91,0.8,NE,2.3,-,N/A,,Clear,50,2013-06-18 03:07:00
11:08 PM,59.0,59.0,100,29.91,1.0,ENE,2.3,-,N/A,,Clear,60,2013-06-18 03:08:00
11:09 PM,59.0,59.0,100,29.91,1.0,NE,2.3,-,N/A,,Clear,50,2013-06-18 03:09:00
11:11 PM,59.0,59.0,100,29.91,1.2,NE,2.3,-,N/A,,Clear,40,2013-06-18 03:11:00
11:13 PM,59.0,59.0,100,29.91,1.0,NE,2.3,-,N/A,,Clear,50,2013-06-18 03:13:00
11:14 PM,59.0,59.0,100,29.91,1.0,NE,2.3,-,N/A,,Clear,40,2013-06-18 03:14:00
11:15 PM,59.0,59.0,100,29.91,0.8,NE,2.3,-,N/A,,Clear,40,2013-06-18 03:15:00
11:16 PM,59.0,59.0,100,29.91,0.8,NE,2.3,-,N/A,,Clear,40,2013-06-18 03:16:00
11:17 PM,59.0,59.0,100,29.91,0.8,NE,2.3,-,N/A,,Clear,40,2013-06-18 03:17:00
11:18 PM,59.0,59.0,100,29.91,0.5,NE,3.5,-,N/A,Fog,Fog,50,2013-06-18 03:18:00
11:20 PM,59.0,59.0,100,29.91,0.5,NE,3.5,-,N/A,Fog,Fog,50,2013-06-18 03:20:00
11:27 PM,57.2,57.2,100,29.91,0.5,ENE,2.3,-,N/A,Fog,Fog,60,2013-06-18 03:27:00
11:31 PM,57.2,57.2,100,29.91,0.8,Calm,Calm,-,N/A,,Clear,0,2013-06-18 03:31:00
11:33 PM,57.2,57.2,100,29.91,0.8,South,2.3,-,N/A,,Clear,190,2013-06-18 03:33:00
11:34 PM,59.0,57.2,94,29.91,1.0,South,2.3,-,N/A,,Clear,180,2013-06-18 03:34:00
11:35 PM,59.0,59.0,100,29.91,1.0,South,2.3,-,N/A,,Clear,180,2013-06-18 03:35:00
11:36 PM,59.0,59.0,100,29.91,1.2,South,2.3,-,N/A,,Clear,180,2013-06-18 03:36:00
11:37 PM,59.0,59.0,100,29.91,1.0,South,1.2,-,N/A,,Clear,190,2013-06-18 03:37:00
11:39 PM,59.0,57.2,94,29.91,1.0,Calm,Calm,-,N/A,,Clear,0,2013-06-18 03:39:00
11:40 PM,57.2,57.2,100,29.91,0.8,Calm,Calm,-,N/A,,Clear,0,2013-06-18 03:40:00
11:41 PM,59.0,57.2,94,29.91,0.8,Calm,Calm,-,N/A,,Clear,0,2013-06-18 03:41:00
11:42 PM,59.0,57.2,94,29.91,0.8,Calm,Calm,-,N/A,,Clear,0,2013-06-18 03:42:00
11:43 PM,59.0,57.2,94,29.91,0.5,Calm,Calm,-,N/A,Fog,Fog,0,2013-06-18 03:43:00
11:48 PM,59.0,59.0,100,29.91,0.8,West,1.2,-,N/A,,Clear,260,2013-06-18 03:48:00
11:51 PM,59.0,59.0,100,29.91,0.8,SSW,2.3,-,N/A,,Clear,200,2013-06-18 03:51:00
11:52 PM,59.0,59.0,100,29.91,1.0,South,2.3,-,N/A,,Clear,180,2013-06-18 03:52:00
11:53 PM,59.0,59.0,100,29.91,1.2,South,2.3,-,N/A,,Clear,180,2013-06-18 03:53:00
11:54 PM,59.0,59.0,100,29.91,1.5,South,2.3,-,N/A,,Clear,180,2013-06-18 03:54:00
11:56 PM,59.0,59.0,100,29.91,1.2,South,2.3,-,N/A,,Clear,190,2013-06-18 03:56:00
11:57 PM,59.0,59.0,100,29.91,1.2,SSW,2.3,-,N/A,,Clear,200,2013-06-18 03:57:00
11:58 PM,59.0,59.0,100,29.93,1.0,SSW,2.3,-,N/A,,Clear,200,2013-06-18 03:58:00